createdAt,value
2019-01-05T00:01:51.185Z,16.07
2019-01-05T00:04:40.539Z,16.33
2019-01-05T00:07:43.324Z,13.77
2019-01-05T00:10:37.364Z,15.07
2019-01-05T00:13:24.104Z,16.00
2019-01-05T00:16:15.069Z,13.97
2019-01-05T00:19:16.129Z,15.50
2019-01-05T00:22:07.873Z,14.67
2019-01-05T00:25:11.138Z,16.00
2019-01-05T00:27:59.439Z,14.93
2019-01-05T00:30:53.863Z,15.80
2019-01-05T00:33:46.732Z,14.13
2019-01-05T00:36:36.368Z,15.13
2019-01-05T00:42:59.449Z,15.63
2019-01-05T00:45:54.144Z,14.00
2019-01-05T00:48:42.674Z,14.33
2019-01-05T00:51:50.661Z,14.90
2019-01-05T00:54:37.829Z,14.27
2019-01-05T00:57:35.785Z,15.30
2019-01-05T01:00:27.399Z,14.90
2019-01-05T01:03:24.552Z,14.10
2019-01-05T01:06:12.501Z,14.80
2019-01-05T01:09:03.347Z,13.60
2019-01-05T01:11:54.093Z,15.70
2019-01-05T01:14:45.257Z,15.67
2019-01-05T01:17:48.491Z,15.40
2019-01-05T01:21:00.903Z,15.10
2019-01-05T01:23:42.590Z,16.13
2019-01-05T01:26:29.748Z,14.80
2019-01-05T01:29:16.715Z,17.07
2019-01-05T01:32:03.495Z,15.70
2019-01-05T01:38:42.472Z,14.90
2019-01-05T01:41:41.214Z,16.00
2019-01-05T01:44:28.095Z,14.23
2019-01-05T01:47:44.414Z,16.20
2019-01-05T01:50:38.630Z,15.30
2019-01-05T01:56:36.950Z,15.37
2019-01-05T01:59:38.124Z,17.53
2019-01-05T02:02:19.322Z,15.63
2019-01-05T02:05:06.408Z,16.37
2019-01-05T02:07:56.320Z,17.03
2019-01-05T02:11:01.117Z,16.13
2019-01-05T02:13:49.391Z,16.20
2019-01-05T02:16:51.116Z,16.57
2019-01-05T02:20:04.389Z,18.33
2019-01-05T02:26:40.008Z,16.10
2019-01-05T02:30:11.131Z,19.20
2019-01-05T02:33:03.466Z,17.17
2019-01-05T02:36:15.941Z,15.83
2019-01-05T02:39:43.995Z,18.87
2019-01-05T02:42:40.587Z,18.37
2019-01-05T02:52:18.778Z,19.97
2019-01-05T03:02:13.899Z,17.83
2019-01-05T03:14:42.546Z,19.57
2019-01-05T03:17:51.294Z,18.97
2019-01-05T03:24:13.513Z,20.00
2019-01-05T03:27:33.102Z,20.00
2019-01-05T03:30:51.642Z,21.60
2019-01-05T03:37:15.131Z,21.07
2019-01-05T03:43:47.719Z,20.93
2019-01-05T03:47:10.087Z,20.77
2019-01-05T03:53:35.220Z,19.73
2019-01-05T03:56:35.548Z,18.67
2019-01-05T03:59:48.590Z,20.40
2019-01-05T04:03:09.697Z,18.83
2019-01-05T04:06:34.619Z,19.53
2019-01-05T04:12:37.101Z,19.23
2019-01-05T04:15:39.553Z,19.37
2019-01-05T04:19:10.452Z,20.53
2019-01-05T04:22:32.177Z,21.10
2019-01-05T04:25:40.371Z,19.10
2019-01-05T04:28:54.612Z,23.00
2019-01-05T04:32:12.037Z,21.70
2019-01-05T04:35:28.072Z,20.70
2019-01-05T04:38:48.716Z,19.87
2019-01-05T04:42:09.968Z,21.07
2019-01-05T04:45:35.101Z,19.00
2019-01-05T04:48:40.913Z,18.50
2019-01-05T04:51:58.745Z,18.40
2019-01-05T04:55:04.469Z,20.43
2019-01-05T04:58:12.816Z,19.80
2019-01-05T05:01:32.055Z,19.60
2019-01-05T05:04:44.977Z,19.57
2019-01-05T05:07:52.848Z,18.90
2019-01-05T05:14:16.053Z,18.00
2019-01-05T05:17:34.892Z,17.37
2019-01-05T05:20:32.936Z,15.90
2019-01-05T05:23:34.186Z,17.30
2019-01-05T05:26:47.751Z,17.53
2019-01-05T05:33:13.075Z,17.20
2019-01-05T05:36:09.290Z,18.83
2019-01-05T05:39:30.531Z,18.40
2019-01-05T05:42:52.960Z,18.20
2019-01-05T05:45:58.498Z,17.40
2019-01-05T05:49:04.613Z,18.77
2019-01-05T05:52:23.488Z,17.37
2019-01-05T05:55:31.285Z,15.80
2019-01-05T05:58:59.073Z,16.40
2019-01-05T06:02:16.000Z,14.77
2019-01-05T06:05:21.824Z,13.40
2019-01-05T06:08:45.741Z,15.30
2019-01-05T06:11:55.808Z,15.30
2019-01-05T06:18:19.706Z,14.00
2019-01-05T06:21:25.338Z,12.77
2019-01-05T06:24:28.942Z,12.33
2019-01-05T06:27:49.763Z,12.50
2019-01-05T06:31:09.053Z,14.03
2019-01-05T06:37:23.110Z,11.87
2019-01-05T06:40:39.012Z,12.60
2019-01-05T06:47:02.681Z,10.60
2019-01-05T06:50:20.360Z,11.10
2019-01-05T06:53:28.768Z,10.10
2019-01-05T06:56:33.736Z,10.60
2019-01-05T06:59:38.848Z,10.17
2019-01-05T07:03:00.363Z,10.10
2019-01-05T07:09:25.229Z,8.70
2019-01-05T07:15:44.732Z,8.63
2019-01-05T07:18:53.015Z,8.30
2019-01-05T07:22:05.755Z,8.70
2019-01-05T07:28:21.906Z,7.20
2019-01-05T07:34:37.930Z,6.73
2019-01-05T07:37:55.685Z,8.60
2019-01-05T07:41:07.214Z,9.63
2019-01-05T07:44:32.787Z,8.63
2019-01-05T07:47:53.859Z,9.77
2019-01-05T07:54:22.328Z,7.97
2019-01-05T07:57:27.243Z,7.00
2019-01-05T08:00:31.486Z,6.83
2019-01-05T08:03:44.803Z,6.53
2019-01-05T08:06:51.468Z,6.13
2019-01-05T08:10:04.698Z,5.47
2019-01-05T08:13:20.563Z,5.90
2019-01-05T08:26:01.539Z,5.70
2019-01-05T08:28:53.518Z,5.17
2019-01-05T08:32:21.481Z,5.27
2019-01-05T08:38:57.018Z,5.00
2019-01-05T08:41:59.955Z,4.50
2019-01-05T08:45:09.954Z,4.93
2019-01-05T08:51:27.937Z,4.57
2019-01-05T08:54:44.288Z,4.13
2019-01-05T08:57:56.088Z,6.30
2019-01-05T09:01:14.991Z,6.10
2019-01-05T09:04:48.767Z,4.17
2019-01-05T09:08:02.165Z,4.13
2019-01-05T09:10:55.128Z,4.10
2019-01-05T09:14:05.991Z,4.47
2019-01-05T09:17:19.065Z,3.90
2019-01-05T09:20:29.204Z,4.40
2019-01-05T09:23:43.318Z,3.90
2019-01-05T09:26:48.577Z,4.80
2019-01-05T09:29:53.798Z,3.43
2019-01-05T09:33:25.607Z,4.77
2019-01-05T09:36:37.417Z,4.27
2019-01-05T09:46:32.439Z,3.37
2019-01-05T09:49:43.231Z,3.70
2019-01-05T09:53:06.198Z,3.93
2019-01-05T09:56:10.944Z,3.20
2019-01-05T09:59:34.988Z,3.57
2019-01-05T10:02:52.044Z,3.33
2019-01-05T10:06:14.157Z,3.27
2019-01-05T10:09:30.249Z,2.93
2019-01-05T10:13:07.573Z,2.80
2019-01-05T10:16:41.999Z,3.20
2019-01-05T10:20:12.844Z,3.10
2019-01-05T10:23:23.553Z,4.23
2019-01-05T10:26:49.062Z,3.20
2019-01-05T10:30:05.746Z,3.50
2019-01-05T10:33:21.981Z,2.97
2019-01-05T10:36:25.378Z,4.07
2019-01-05T10:39:29.881Z,3.80
2019-01-05T10:42:57.684Z,3.23
2019-01-05T10:46:03.394Z,3.20
2019-01-05T10:49:33.565Z,3.40
2019-01-05T10:52:40.703Z,2.80
2019-01-05T10:56:05.780Z,3.07
2019-01-05T10:59:11.405Z,2.90
2019-01-05T11:02:17.280Z,3.07
2019-01-05T11:05:17.598Z,2.67
2019-01-05T11:08:12.038Z,3.53
2019-01-05T11:11:05.340Z,3.30
2019-01-05T11:14:30.674Z,4.10
2019-01-05T11:17:39.035Z,4.17
2019-01-05T11:20:47.756Z,3.47
2019-01-05T11:27:04.877Z,3.10
2019-01-05T11:30:29.279Z,4.27
2019-01-05T11:33:32.548Z,3.33
2019-01-05T11:36:33.719Z,2.93
2019-01-05T11:39:51.414Z,3.67
2019-01-05T11:42:57.018Z,3.00
2019-01-05T11:46:15.877Z,3.67
2019-01-05T11:52:32.645Z,2.43
2019-01-05T11:55:57.305Z,2.80
2019-01-05T11:59:05.959Z,2.80
2019-01-05T12:02:19.687Z,2.70
2019-01-05T12:05:14.329Z,2.80
2019-01-05T12:08:12.866Z,3.00
2019-01-05T12:11:06.764Z,2.63
2019-01-05T12:14:15.087Z,3.00
2019-01-05T12:17:09.192Z,2.77
2019-01-05T12:20:32.034Z,3.00
2019-01-05T12:23:35.882Z,2.90
2019-01-05T12:26:50.139Z,3.00
2019-01-05T12:29:59.398Z,2.90
2019-01-05T12:33:05.507Z,2.43
2019-01-05T12:36:13.735Z,3.40
2019-01-05T12:39:13.847Z,2.57
2019-01-05T12:42:32.564Z,3.40
2019-01-05T12:45:50.425Z,3.80
2019-01-05T12:49:23.951Z,3.33
2019-01-05T12:52:48.883Z,4.33
2019-01-05T12:56:07.041Z,4.30
2019-01-05T12:59:03.052Z,4.37
2019-01-05T13:02:11.996Z,4.00
2019-01-05T13:05:14.091Z,4.83
2019-01-05T13:08:23.675Z,4.33
2019-01-05T13:11:39.456Z,4.80
2019-01-05T13:14:42.243Z,5.17
2019-01-05T13:17:54.730Z,5.23
2019-01-05T13:20:48.885Z,5.50
2019-01-05T13:24:01.277Z,5.97
2019-01-05T13:27:23.040Z,5.50
2019-01-05T13:30:37.282Z,6.70
2019-01-05T13:36:45.644Z,5.97
2019-01-05T13:40:03.406Z,7.00
2019-01-05T13:43:11.400Z,6.87
2019-01-05T13:46:13.150Z,6.60
2019-01-05T13:49:44.455Z,6.57
2019-01-05T13:52:48.870Z,6.93
2019-01-05T13:55:39.445Z,7.70
2019-01-05T13:58:29.372Z,7.20
2019-01-05T14:01:20.811Z,9.10
2019-01-05T14:04:17.821Z,7.90
2019-01-05T14:07:18.150Z,6.83
2019-01-05T14:10:04.884Z,7.00
2019-01-05T14:12:52.891Z,8.20
2019-01-05T14:15:40.870Z,7.17
2019-01-05T14:18:21.339Z,6.70
2019-01-05T14:21:13.874Z,7.23
2019-01-05T14:24:08.911Z,6.77
2019-01-05T14:27:24.015Z,6.37
2019-01-05T14:30:12.030Z,7.07
2019-01-05T14:33:06.472Z,8.13
2019-01-05T14:35:54.545Z,8.93
2019-01-05T14:38:41.546Z,8.00
2019-01-05T14:41:31.338Z,6.83
2019-01-05T14:44:25.382Z,7.67
2019-01-05T14:47:13.509Z,7.40
2019-01-05T14:50:00.224Z,5.03
2019-01-05T14:53:03.312Z,5.47
2019-01-05T14:56:16.494Z,7.40
2019-01-05T14:59:03.671Z,6.97
2019-01-05T15:02:06.763Z,6.83
2019-01-05T15:04:54.535Z,6.70
2019-01-05T15:08:02.292Z,7.00
2019-01-05T15:10:59.114Z,7.80
2019-01-05T15:13:45.648Z,7.70
2019-01-05T15:16:34.396Z,8.07
2019-01-05T15:19:25.540Z,7.80
2019-01-05T15:22:12.865Z,9.78
2019-01-05T15:25:18.308Z,7.23
2019-01-05T15:28:12.098Z,7.60
2019-01-05T15:30:58.705Z,8.80
2019-01-05T15:34:10.840Z,6.67
2019-01-05T15:36:57.555Z,10.15
2019-01-05T15:39:45.081Z,8.97
2019-01-05T15:42:42.897Z,10.32
2019-01-05T15:45:29.804Z,11.20
2019-01-05T15:48:54.325Z,8.70
2019-01-05T15:51:46.411Z,11.70
2019-01-05T15:54:33.948Z,12.20
2019-01-05T15:57:20.435Z,12.43
2019-01-05T16:03:03.210Z,10.00
2019-01-05T16:05:52.774Z,9.48
2019-01-05T16:08:52.876Z,9.90
2019-01-05T16:11:59.282Z,11.77
2019-01-05T16:14:45.850Z,9.77
2019-01-05T16:18:00.042Z,7.87
2019-01-05T16:20:47.841Z,9.17
2019-01-05T16:23:38.151Z,9.83
2019-01-05T16:26:26.264Z,9.93
2019-01-05T16:29:20.196Z,10.70
2019-01-05T16:32:10.856Z,11.60
2019-01-05T16:35:08.656Z,9.97
2019-01-05T16:38:07.000Z,10.50
2019-01-05T16:40:54.543Z,10.03
2019-01-05T16:43:44.297Z,10.43
2019-01-05T16:46:26.611Z,11.57
2019-01-05T16:49:15.857Z,11.67
2019-01-05T16:52:03.805Z,12.50
2019-01-05T16:55:09.899Z,9.50
2019-01-05T16:57:57.919Z,11.47
2019-01-05T17:00:44.677Z,12.27
2019-01-05T17:03:31.531Z,11.37
2019-01-05T17:06:22.595Z,12.50
2019-01-05T17:09:17.340Z,9.70
2019-01-05T17:12:13.104Z,20.63
2019-01-05T17:14:59.798Z,20.73
2019-01-05T17:17:57.143Z,17.63
2019-01-05T17:20:43.825Z,11.80
2019-01-05T17:23:31.019Z,12.87
2019-01-05T17:26:17.558Z,11.47
2019-01-05T17:28:59.383Z,9.47
2019-01-05T17:31:56.080Z,10.80
2019-01-05T17:34:50.280Z,10.20
2019-01-05T17:37:35.695Z,10.33
2019-01-05T17:40:29.456Z,9.93
2019-01-05T17:43:20.230Z,10.30
2019-01-05T17:46:22.538Z,10.13
2019-01-05T17:49:28.759Z,11.23
2019-01-05T17:52:22.869Z,10.00
2019-01-05T17:55:10.809Z,9.00
2019-01-05T17:58:10.903Z,9.13
2019-01-05T18:01:04.875Z,9.90
2019-01-05T18:03:52.829Z,9.10
2019-01-05T18:06:39.585Z,9.30
2019-01-05T18:09:26.951Z,8.97
2019-01-05T18:12:24.314Z,7.60
2019-01-05T18:15:10.856Z,9.73
2019-01-05T18:17:58.809Z,7.57
2019-01-05T18:20:46.760Z,8.30
2019-01-05T18:23:34.730Z,7.70
2019-01-05T18:26:41.231Z,8.37
2019-01-05T18:29:41.421Z,9.70
2019-01-05T18:32:29.341Z,8.70
2019-01-05T18:35:21.158Z,8.67
2019-01-05T18:38:24.353Z,8.80
2019-01-05T18:41:10.579Z,8.17
2019-01-05T18:44:04.437Z,8.77
2019-01-05T18:46:54.692Z,9.07
2019-01-05T18:49:41.610Z,9.57
2019-01-05T18:52:29.529Z,9.73
2019-01-05T18:55:16.242Z,10.20
2019-01-05T18:58:03.022Z,9.17
2019-01-05T19:00:46.895Z,10.63
2019-01-05T19:03:53.105Z,9.33
2019-01-05T19:06:50.535Z,9.70
2019-01-05T19:09:49.319Z,9.93
2019-01-05T19:12:39.479Z,9.20
2019-01-05T19:15:41.533Z,7.00
2019-01-05T19:18:33.004Z,8.20
2019-01-05T19:21:19.902Z,9.33
2019-01-05T19:24:17.281Z,8.90
2019-01-05T19:27:04.416Z,9.60
2019-01-05T19:29:52.672Z,8.60
2019-01-05T19:32:41.088Z,6.80
2019-01-05T19:35:37.910Z,9.33
2019-01-05T19:38:24.500Z,8.40
2019-01-05T19:41:21.143Z,8.90
2019-01-05T19:44:10.148Z,8.77
2019-01-05T19:46:56.681Z,7.93
2019-01-05T19:49:53.389Z,9.37
2019-01-05T19:52:43.563Z,9.10
2019-01-05T19:55:34.262Z,8.70
2019-01-05T19:58:39.218Z,9.67
2019-01-05T20:01:44.724Z,8.90
2019-01-05T20:07:42.520Z,8.90
2019-01-05T20:10:39.586Z,10.57
2019-01-05T20:13:48.334Z,7.87
2019-01-05T20:16:45.108Z,9.70
2019-01-05T20:20:00.710Z,8.90
2019-01-05T20:26:02.878Z,9.10
2019-01-05T20:28:50.938Z,9.70
2019-01-05T20:31:42.277Z,9.33
2019-01-05T20:34:42.378Z,8.73
2019-01-05T20:37:27.593Z,8.33
2019-01-05T20:40:21.651Z,9.43
2019-01-05T20:43:15.973Z,9.03
2019-01-05T20:46:17.180Z,8.10
2019-01-05T20:49:22.922Z,8.73
2019-01-05T20:52:29.148Z,7.10
2019-01-05T20:55:16.453Z,8.13
2019-01-05T20:58:22.683Z,8.00
2019-01-05T21:01:10.752Z,7.20
2019-01-05T21:03:57.701Z,7.40
2019-01-05T21:06:55.110Z,7.30
2019-01-05T21:10:13.269Z,7.43
2019-01-05T21:13:31.515Z,6.30
2019-01-05T21:16:24.280Z,6.67
2019-01-05T21:19:21.827Z,6.57
2019-01-05T21:22:08.862Z,7.20
2019-01-05T21:28:20.248Z,7.87
2019-01-05T21:31:13.655Z,6.53
2019-01-05T21:34:06.785Z,6.80
2019-01-05T21:37:08.805Z,7.20
2019-01-05T21:40:02.595Z,8.70
2019-01-05T21:43:08.653Z,7.30
2019-01-05T21:45:55.072Z,7.73
2019-01-05T21:49:01.376Z,8.00
2019-01-05T21:52:14.351Z,9.40
2019-01-05T21:55:01.060Z,8.03
2019-01-05T21:58:03.137Z,8.80
2019-01-05T22:01:00.396Z,8.10
2019-01-05T22:04:03.583Z,7.63
2019-01-05T22:06:59.570Z,8.80
2019-01-05T22:09:40.172Z,8.07
2019-01-05T22:12:22.767Z,7.57
2019-01-05T22:15:16.636Z,7.80
2019-01-05T22:18:24.913Z,8.53
2019-01-05T22:21:25.226Z,7.10
2019-01-05T22:24:14.737Z,7.93
2019-01-05T22:27:01.512Z,8.70
2019-01-05T22:29:44.803Z,8.53
2019-01-05T22:32:33.213Z,8.63
2019-01-05T22:35:36.268Z,8.77
2019-01-05T22:38:23.302Z,7.53
2019-01-05T22:41:10.064Z,7.50
2019-01-05T22:44:13.403Z,7.80
2019-01-05T22:47:13.538Z,8.20
2019-01-05T22:50:04.476Z,9.10
2019-01-05T22:52:55.929Z,7.80
2019-01-05T22:55:42.671Z,7.67
2019-01-05T22:58:29.660Z,8.83
2019-01-05T23:01:35.894Z,7.90
2019-01-05T23:04:21.882Z,8.93
2019-01-05T23:07:09.831Z,8.00
2019-01-05T23:10:00.083Z,7.83
2019-01-05T23:18:59.909Z,8.90
2019-01-05T23:21:53.668Z,9.00
2019-01-05T23:24:44.682Z,9.03
2019-01-05T23:27:41.607Z,7.33
2019-01-05T23:30:29.881Z,7.40
2019-01-05T23:33:25.142Z,7.70
2019-01-05T23:36:21.892Z,8.00
2019-01-05T23:39:09.860Z,9.37
2019-01-05T23:41:56.686Z,8.80
2019-01-05T23:44:43.276Z,8.20
2019-01-05T23:47:37.066Z,8.10
2019-01-05T23:50:31.130Z,8.63
2019-01-05T23:53:18.343Z,7.20
2019-01-05T23:56:15.142Z,7.30
2019-01-05T23:59:22.100Z,7.60
